Time;durP1;ratioP1;P1;durP2;ratioP2;P2;SDS_P1;SDS_P2;PMS_P1;PMS_P2;Temp;Humidity;BMP_temperature;BMP_pressure;BME280_temperature;BME280_humidity;BME280_pressure;Samples;Min_cycle;Max_cycle;Signal;HPM_P1;HPM_P2
2022/12/19 00:01:46;;;;;;;1999.90;999.90;;;;;;;;;;5058782;28;20192;-67
2022/12/19 00:04:14;;;;;;;1999.90;999.90;;;;;;;;;;5058360;28;20407;-67
2022/12/19 00:06:40;;;;;;;1999.90;999.90;;;0.80;48.40;;;;;;5058412;28;20949;-67
2022/12/19 00:09:06;;;;;;;1999.90;999.90;;;;;;;;;;5058687;28;20186;-67
2022/12/19 00:11:32;;;;;;;1999.90;999.90;;;0.30;47.20;;;;;;5056127;28;20207;-67
2022/12/19 00:13:59;;;;;;;1999.90;999.90;;;1.10;50.10;;;;;;5054943;28;20221;-68
2022/12/19 00:16:27;;;;;;;1999.90;999.90;;;0.90;66.80;;;;;;5055025;28;20172;-67
2022/12/19 00:18:54;;;;;;;1999.90;999.90;;;1.00;96.50;;;;;;5054993;28;20183;-67
2022/12/19 00:21:23;;;;;;;1999.90;999.90;;;1.00;56.40;;;;;;5054986;28;20529;-67
2022/12/19 00:23:49;;;;;;;1999.90;999.90;;;1.00;98.40;;;;;;5054952;28;20184;-67
2022/12/19 00:26:26;;;;;;;1999.90;999.90;;;1.10;93.60;;;;;;5054984;28;20275;-67
2022/12/19 00:28:55;;;;;;;1999.90;999.90;;;1.10;55.30;;;;;;5054638;28;20428;-67
2022/12/19 00:31:22;;;;;;;1999.90;999.90;;;1.10;52.00;;;;;;5054686;28;20212;-67
2022/12/19 00:33:48;;;;;;;1999.90;999.90;;;1.20;98.20;;;;;;5055216;28;20565;-67
2022/12/19 00:36:24;;;;;;;1999.90;999.90;;;1.30;48.30;;;;;;5053778;28;20199;-67
2022/12/19 00:38:51;;;;;;;1999.90;999.90;;;1.30;99.20;;;;;;5054590;28;20201;-67
2022/12/19 00:41:20;;;;;;;1999.90;999.90;;;1.40;57.10;;;;;;5054862;28;20683;-67
2022/12/19 00:43:48;;;;;;;1999.90;999.90;;;1.40;99.90;;;;;;5054224;28;20178;-68
2022/12/19 00:46:14;;;;;;;1999.90;999.90;;;1.50;98.90;;;;;;5054007;28;20200;-68
2022/12/19 00:48:41;;;;;;;1999.90;999.90;;;1.60;98.20;;;;;;5053797;28;20167;-68
2022/12/19 00:51:13;;;;;;;1999.90;999.90;;;1.50;57.10;;;;;;5054357;28;20230;-68
2022/12/19 00:53:39;;;;;;;1999.90;999.90;;;1.60;97.10;;;;;;5057564;28;20222;-68
2022/12/19 00:56:10;;;;;;;1999.90;999.90;;;1.30;92.60;;;;;;5057379;28;20190;-68
2022/12/19 00:58:36;;;;;;;1999.90;999.90;;;;;;;;;;5057434;28;20579;-67
2022/12/19 01:01:11;;;;;;;1999.90;999.90;;;1.30;36.20;;;;;;5056991;28;20549;-68
2022/12/19 01:03:37;;;;;;;1999.90;999.90;;;1.50;90.60;;;;;;5056791;28;20176;-68
2022/12/19 01:06:02;;;;;;;1999.90;999.90;;;1.50;90.00;;;;;;5057286;28;20177;-69
2022/12/19 01:08:28;;;;;;;1999.90;999.90;;;1.60;92.30;;;;;;5057492;28;20256;-68
2022/12/19 01:10:54;;;;;;;1999.90;999.90;;;1.60;60.20;;;;;;5058025;28;20445;-68
2022/12/19 01:13:21;;;;;;;1999.90;999.90;;;1.60;56.50;;;;;;5058207;28;20179;-68
2022/12/19 01:15:47;;;;;;;1999.90;999.90;;;1.70;99.40;;;;;;5057908;28;20918;-68
2022/12/19 01:18:13;;;;;;;1999.90;999.90;;;;;;;;;;5057713;28;20223;-67
2022/12/19 01:20:40;;;;;;;1999.90;999.90;;;1.60;99.90;;;;;;5058570;28;20206;-68
2022/12/19 01:23:07;;;;;;;1999.90;999.90;;;;;;;;;;5055174;28;20199;-68
2022/12/19 01:25:34;;;;;;;1999.90;999.90;;;1.90;99.90;;;;;;5053292;28;20297;-68
2022/12/19 01:28:00;;;;;;;1999.90;999.90;;;;;;;;;;5052964;28;20179;-68
2022/12/19 01:30:26;;;;;;;1999.90;999.90;;;1.70;99.90;;;;;;5053154;28;20168;-68
2022/12/19 01:32:52;;;;;;;1999.90;999.90;;;1.60;99.90;;;;;;5052971;28;20245;-68
2022/12/19 01:35:18;;;;;;;1999.90;999.90;;;;;;;;;;5053109;28;20171;-68
2022/12/19 01:37:43;;;;;;;1999.90;999.90;;;1.90;99.90;;;;;;5052704;28;20164;-68
2022/12/19 01:40:11;;;;;;;1999.90;999.90;;;2.00;99.90;;;;;;5053016;28;20509;-68
2022/12/19 01:42:37;;;;;;;1999.90;999.90;;;2.00;99.90;;;;;;5052880;28;20287;-68
2022/12/19 01:45:03;;;;;;;1999.90;999.90;;;;;;;;;;5053182;28;20196;-68
2022/12/19 01:47:29;;;;;;;1999.90;999.90;;;1.50;94.80;;;;;;5051655;28;20171;-68
2022/12/19 01:49:55;;;;;;;1999.90;999.90;;;2.00;97.90;;;;;;5052748;28;20410;-68
2022/12/19 01:52:21;;;;;;;1999.90;999.90;;;2.00;99.90;;;;;;5052609;28;20626;-68
2022/12/19 01:54:47;;;;;;;1999.90;999.90;;;2.00;99.90;;;;;;5052721;28;20548;-68
2022/12/19 01:57:17;;;;;;;1999.90;999.90;;;2.00;99.90;;;;;;5052655;28;20172;-68
2022/12/19 01:59:43;;;;;;;1999.90;999.90;;;2.20;99.90;;;;;;5052545;28;20402;-68
2022/12/19 02:02:26;;;;;;;1999.90;999.90;;;2.10;99.90;;;;;;5052525;28;20192;-68
2022/12/19 02:04:52;;;;;;;1999.90;999.90;;;1.90;88.10;;;;;;5052564;28;20180;-68
2022/12/19 02:07:19;;;;;;;1999.90;999.90;;;2.00;92.10;;;;;;5052320;28;20164;-68
2022/12/19 02:09:48;;;;;;;1999.90;999.90;;;1.90;90.50;;;;;;5052551;28;20599;-68
2022/12/19 02:12:14;;;;;;;1999.90;999.90;;;2.00;99.90;;;;;;5052352;28;20203;-68
2022/12/19 02:14:40;;;;;;;1999.90;999.90;;;1.80;88.00;;;;;;5052394;28;20168;-68
2022/12/19 02:17:26;;;;;;;1999.90;999.90;;;1.80;99.90;;;;;;5052114;28;20626;-68
2022/12/19 02:19:51;;;;;;;1999.90;999.90;;;;;;;;;;5052179;28;20175;-68
2022/12/19 02:22:33;;;;;;;1999.90;999.90;;;1.80;79.50;;;;;;5052126;28;20187;-68
2022/12/19 02:24:59;;;;;;;1999.90;999.90;;;;;;;;;;5052150;28;20402;-68
2022/12/19 02:28:13;;;;;;;1999.90;999.90;;;1.90;99.90;;;;;;5051861;28;20182;-68
2022/12/19 02:30:58;;;;;;;1999.90;999.90;;;1.80;99.90;;;;;;5034515;28;20546;-68
2022/12/19 02:33:38;;;;;;;1999.90;999.90;;;1.80;95.10;;;;;;5052000;28;20270;-68
2022/12/19 02:36:11;;;;;;;1999.90;999.90;;;1.70;99.90;;;;;;5051951;28;20233;-68
2022/12/19 02:38:45;;;;;;;1999.90;999.90;;;1.80;99.90;;;;;;5051810;28;20197;-68
2022/12/19 02:41:48;;;;;;;1999.90;999.90;;;1.90;99.90;;;;;;5051809;28;20186;-68
2022/12/19 02:44:22;;;;;;;1999.90;999.90;;;1.90;99.90;;;;;;5041002;28;20213;-68
2022/12/19 02:46:49;;;;;;;1999.90;999.90;;;2.00;99.90;;;;;;5051853;28;20270;-68
2022/12/19 02:49:14;;;;;;;1999.90;999.90;;;2.60;99.90;;;;;;5051794;28;20172;-68
2022/12/19 02:51:40;;;;;;;1999.90;999.90;;;;;;;;;;5051746;28;20203;-68
2022/12/19 02:54:07;;;;;;;1999.90;999.90;;;2.40;99.90;;;;;;5051784;28;20687;-68
2022/12/19 02:56:44;;;;;;;1999.90;999.90;;;2.00;99.90;;;;;;5051634;28;20407;-68
2022/12/19 02:59:34;;;;;;;1999.90;999.90;;;2.10;99.90;;;;;;5055222;28;20234;-68
2022/12/19 03:02:21;;;;;;;1999.90;999.90;;;2.50;99.90;;;;;;5056101;28;20195;-68
2022/12/19 03:05:08;;;;;;;1999.90;999.90;;;2.20;99.90;;;;;;5055922;28;20552;-68
2022/12/19 03:07:46;;;;;;;1999.90;999.90;;;2.20;99.90;;;;;;5055843;28;20179;-68
2022/12/19 03:10:36;;;;;;;1999.90;999.90;;;2.20;99.90;;;;;;5055813;28;20186;-68
2022/12/19 03:13:12;;;;;;;1999.90;999.90;;;2.10;99.90;;;;;;5055708;28;20195;-68
2022/12/19 03:15:38;;;;;;;1999.90;999.90;;;2.20;99.90;;;;;;5056189;28;20179;-68
2022/12/19 03:18:05;;;;;;;1999.90;999.90;;;2.20;99.90;;;;;;5055489;28;20271;-69
2022/12/19 03:20:45;;;;;;;1999.90;999.90;;;1.90;99.90;;;;;;5055595;28;20180;-69
2022/12/19 03:23:11;;;;;;;1999.90;999.90;;;1.80;99.90;;;;;;5055526;28;20258;-68
2022/12/19 03:25:40;;;;;;;1999.90;999.90;;;2.10;99.90;;;;;;5055429;28;20258;-69
2022/12/19 03:28:12;;;;;;;1999.90;999.90;;;2.10;99.90;;;;;;5055200;28;20167;-68
2022/12/19 03:30:41;;;;;;;1999.90;999.90;;;2.30;99.90;;;;;;5055249;28;20171;-68
2022/12/19 03:33:10;;;;;;;1999.90;999.90;;;2.20;88.20;;;;;;5055357;28;20241;-68
2022/12/19 03:35:38;;;;;;;1999.90;999.90;;;2.30;99.90;;;;;;5055332;28;20187;-68
2022/12/19 03:38:05;;;;;;;1999.90;999.90;;;2.30;99.90;;;;;;5054970;28;20195;-68
2022/12/19 03:40:33;;;;;;;1999.90;999.90;;;2.20;92.50;;;;;;5055335;28;20163;-68
2022/12/19 03:43:09;;;;;;;1999.90;999.90;;;2.20;99.90;;;;;;5055067;28;20187;-68
2022/12/19 03:45:59;;;;;;;1999.90;999.90;;;2.30;99.90;;;;;;5055212;28;20193;-68
2022/12/19 03:48:37;;;;;;;1999.90;999.90;;;2.20;99.90;;;;;;5054961;28;20203;-68
2022/12/19 03:51:14;;;;;;;1999.90;999.90;;;2.20;99.90;;;;;;5054939;28;20199;-68
2022/12/19 03:53:54;;;;;;;1999.90;999.90;;;2.30;99.90;;;;;;5055000;28;20171;-68
2022/12/19 03:56:49;;;;;;;1999.90;999.90;;;2.40;99.90;;;;;;5054959;28;20164;-68
2022/12/19 03:59:40;;;;;;;1999.90;999.90;;;2.20;99.90;;;;;;5054843;28;20233;-68
2022/12/19 04:02:06;;;;;;;1999.90;999.90;;;2.30;99.90;;;;;;5054915;28;20204;-69
2022/12/19 04:04:39;;;;;;;1999.90;999.90;;;2.40;99.90;;;;;;5054724;28;20175;-68
2022/12/19 04:07:06;;;;;;;1999.90;999.90;;;2.30;99.90;;;;;;5054569;28;20203;-69
2022/12/19 04:09:32;;;;;;;1999.90;999.90;;;2.90;99.90;;;;;;5053491;28;20597;-68
2022/12/19 04:12:03;;;;;;;1999.90;999.90;;;2.40;99.90;;;;;;5054473;28;20265;-68
2022/12/19 04:14:34;;;;;;;1999.90;999.90;;;2.50;99.90;;;;;;5054771;28;20168;-68
2022/12/19 04:17:15;;;;;;;1999.90;999.90;;;2.50;99.90;;;;;;5054388;28;20409;-68
2022/12/19 04:19:54;;;;;;;1999.90;999.90;;;2.50;99.90;;;;;;5054490;28;20571;-69
2022/12/19 04:22:24;;;;;;;1999.90;999.90;;;2.50;99.90;;;;;;5054382;28;20270;-68
2022/12/19 04:24:52;;;;;;;1999.90;999.90;;;2.60;99.90;;;;;;5054447;28;20182;-68
2022/12/19 04:27:20;;;;;;;1999.90;999.90;;;2.50;99.90;;;;;;5054168;28;20168;-68
2022/12/19 04:29:47;;;;;;;1999.90;999.90;;;2.60;99.90;;;;;;5054252;28;20250;-68
2022/12/19 04:32:13;;;;;;;1999.90;999.90;;;2.50;99.90;;;;;;5054003;28;20199;-68
2022/12/19 04:34:39;;;;;;;1999.90;999.90;;;2.70;99.90;;;;;;5054425;28;20168;-68
2022/12/19 04:37:05;;;;;;;1999.90;999.90;;;2.70;99.90;;;;;;5053615;28;20684;-69
2022/12/19 04:39:31;;;;;;;1999.90;999.90;;;2.80;99.90;;;;;;5054063;28;20178;-69
2022/12/19 04:41:57;;;;;;;1999.90;999.90;;;3.30;99.90;;;;;;5054022;28;20223;-69
2022/12/19 04:44:22;;;;;;;1999.90;999.90;;;3.00;99.90;;;;;;5054048;28;20211;-68
2022/12/19 04:46:48;;;;;;;1999.90;999.90;;;;;;;;;;5053824;28;20233;-69
2022/12/19 04:49:14;;;;;;;1999.90;999.90;;;3.10;99.90;;;;;;5053902;28;20668;-69
2022/12/19 04:51:39;;;;;;;1999.90;999.90;;;3.20;99.90;;;;;;5053696;28;20861;-69
2022/12/19 04:54:05;;;;;;;1999.90;999.90;;;;;;;;;;5053853;28;20202;-68
2022/12/19 04:56:31;;;;;;;1999.90;999.90;;;3.10;99.90;;;;;;5053709;28;20179;-68
2022/12/19 04:58:57;;;;;;;1999.90;999.90;;;3.10;99.90;;;;;;5053578;28;20897;-69
2022/12/19 05:01:23;;;;;;;1999.90;999.90;;;;;;;;;;5053615;28;20172;-69
2022/12/19 05:03:50;;;;;;;1999.90;999.90;;;;;;;;;;5053624;28;20210;-69
2022/12/19 05:06:16;;;;;;;1999.90;999.90;;;3.00;99.90;;;;;;5053699;28;20411;-69
2022/12/19 05:08:43;;;;;;;1999.90;999.90;;;3.20;99.90;;;;;;5053611;28;20198;-69
2022/12/19 05:11:10;;;;;;;1999.90;999.90;;;3.20;99.90;;;;;;5053397;28;20449;-69
2022/12/19 05:13:36;;;;;;;1999.90;999.90;;;3.20;99.90;;;;;;5053515;28;20490;-68
2022/12/19 05:16:04;;;;;;;1999.90;999.90;;;3.20;99.90;;;;;;5053323;28;20199;-69
2022/12/19 05:18:30;;;;;;;1999.90;999.90;;;3.30;99.90;;;;;;5053184;28;20301;-69
2022/12/19 05:20:56;;;;;;;1999.90;999.90;;;3.40;99.90;;;;;;5053242;28;20207;-68
2022/12/19 05:23:22;;;;;;;1999.90;999.90;;;;;;;;;;5053235;28;20222;-69
2022/12/19 05:25:48;;;;;;;1999.90;999.90;;;;;;;;;;5053781;28;20199;-68
2022/12/19 05:28:14;;;;;;;1999.90;999.90;;;3.60;99.90;;;;;;5053848;28;20402;-68
2022/12/19 05:30:40;;;;;;;1999.90;999.90;;;;;;;;;;5053665;28;20397;-68
2022/12/19 05:33:06;;;;;;;1999.90;999.90;;;3.70;99.90;;;;;;5053535;28;20453;-68
2022/12/19 05:35:33;;;;;;;1999.90;999.90;;;3.90;99.90;;;;;;5054017;28;20429;-68
2022/12/19 05:37:59;;;;;;;1999.90;999.90;;;3.70;99.90;;;;;;5053466;28;20629;-68
2022/12/19 05:40:24;;;;;;;1999.90;999.90;;;3.80;99.90;;;;;;5053875;28;20422;-68
2022/12/19 05:42:50;;;;;;;1999.90;999.90;;;;;;;;;;5053808;28;20425;-68
2022/12/19 05:45:16;;;;;;;1999.90;999.90;;;;;;;;;;5053299;28;20206;-68
2022/12/19 05:47:45;;;;;;;1999.90;999.90;;;3.90;99.90;;;;;;5053032;28;20398;-68
2022/12/19 05:50:14;;;;;;;1999.90;999.90;;;4.30;99.90;;;;;;5053515;28;20412;-68
2022/12/19 05:52:41;;;;;;;1999.90;999.90;;;;;;;;;;5053702;28;20344;-67
2022/12/19 05:55:07;;;;;;;1999.90;999.90;;;4.10;99.90;;;;;;5053672;28;20410;-68
2022/12/19 05:57:33;;;;;;;1999.90;999.90;;;4.00;99.90;;;;;;5053544;28;20406;-67
2022/12/19 05:59:59;;;;;;;1999.90;999.90;;;4.20;99.90;;;;;;5053473;28;20413;-68
2022/12/19 06:02:25;;;;;;;1999.90;999.90;;;;;;;;;;5053521;28;20923;-67
2022/12/19 06:04:51;;;;;;;1999.90;999.90;;;;;;;;;;5053504;28;20168;-68
2022/12/19 06:07:17;;;;;;;1999.90;999.90;;;;;;;;;;5053531;28;20410;-68
2022/12/19 06:09:42;;;;;;;1999.90;999.90;;;4.40;99.90;;;;;;5053608;28;20494;-67
2022/12/19 06:12:08;;;;;;;1999.90;999.90;;;4.50;99.90;;;;;;5053583;28;20457;-67
2022/12/19 06:14:33;;;;;;;1999.90;999.90;;;4.40;99.90;;;;;;5053296;28;20186;-67
2022/12/19 06:16:59;;;;;;;1999.90;999.90;;;4.40;99.90;;;;;;5055634;28;20175;-68
2022/12/19 06:19:25;;;;;;;1999.90;999.90;;;;;;;;;;5056690;28;20190;-69
2022/12/19 06:21:51;;;;;;;1999.90;999.90;;;;;;;;;;5056874;28;20202;-67
2022/12/19 06:24:17;;;;;;;1999.90;999.90;;;;;;;;;;5056176;28;20930;-68
2022/12/19 06:26:44;;;;;;;1999.90;999.90;;;4.80;99.90;;;;;;5055949;28;20425;-67
2022/12/19 06:29:09;;;;;;;1999.90;999.90;;;4.80;99.90;;;;;;5055861;28;20429;-68
2022/12/19 06:31:35;;;;;;;1999.90;999.90;;;4.90;99.90;;;;;;5056435;28;20457;-69
2022/12/19 06:34:01;;;;;;;1999.90;999.90;;;5.10;99.90;;;;;;5055858;28;20175;-69
2022/12/19 06:36:28;;;;;;;1999.90;999.90;;;5.20;99.90;;;;;;5056216;28;20230;-68
2022/12/19 06:38:58;;;;;;;1999.90;999.90;;;5.40;99.90;;;;;;5055400;28;20398;-68
2022/12/19 06:44:11;;;;;;;1999.90;999.90;;;5.90;99.90;;;;;;5056909;28;20456;-68
2022/12/19 06:46:37;;;;;;;1999.90;999.90;;;6.40;99.90;;;;;;5056509;28;20406;-68
2022/12/19 06:49:03;;;;;;;1999.90;999.90;;;6.60;99.90;;;;;;5056211;28;20406;-68
2022/12/19 06:51:30;;;;;;;1999.90;999.90;;;6.60;99.90;;;;;;5056094;28;20199;-68
2022/12/19 06:53:55;;;;;;;1999.90;999.90;;;7.00;99.90;;;;;;5056739;28;20398;-69
2022/12/19 06:56:21;;;;;;;1999.90;999.90;;;7.10;99.90;;;;;;5056078;28;20407;-68
2022/12/19 06:58:47;;;;;;;1999.90;999.90;;;7.10;99.90;;;;;;5056028;28;20398;-68
2022/12/19 07:01:17;;;;;;;1999.90;999.90;;;6.60;99.90;;;;;;5055727;28;20504;-68
2022/12/19 07:03:45;;;;;;;1999.90;999.90;;;7.00;99.90;;;;;;5054113;28;20459;-69
2022/12/19 07:06:10;;;;;;;1999.90;999.90;;;7.30;99.90;;;;;;5056458;28;20415;-68
2022/12/19 07:08:36;;;;;;;1999.90;999.90;;;7.20;99.90;;;;;;5056461;28;20406;-67
2022/12/19 07:11:02;;;;;;;1999.90;999.90;;;7.20;99.90;;;;;;5055946;28;20195;-68
2022/12/19 07:13:27;;;;;;;1999.90;999.90;;;7.40;99.90;;;;;;5056330;28;20223;-68
2022/12/19 07:15:57;;;;;;;1999.90;999.90;;;7.20;99.90;;;;;;5056286;28;20167;-68
2022/12/19 07:18:22;;;;;;;1999.90;999.90;;;7.40;99.90;;;;;;5056080;28;20329;-68
2022/12/19 07:20:48;;;;;;;1999.90;999.90;;;7.50;99.90;;;;;;5056374;28;20402;-68
2022/12/19 07:23:19;;;;;;;1999.90;999.90;;;7.30;99.90;;;;;;5055798;28;20245;-69
2022/12/19 07:25:44;;;;;;;1999.90;999.90;;;7.60;99.90;;;;;;5055886;28;20679;-68
2022/12/19 07:28:10;;;;;;;1999.90;999.90;;;7.50;99.90;;;;;;5051449;28;20406;-69
2022/12/19 07:30:36;;;;;;;1999.90;999.90;;;7.50;99.90;;;;;;5051414;28;20710;-69
2022/12/19 07:33:01;;;;;;;1999.90;999.90;;;7.60;99.90;;;;;;5051443;28;20684;-69
2022/12/19 07:35:27;;;;;;;1999.90;999.90;;;7.50;99.90;;;;;;5051461;28;20630;-69
2022/12/19 07:37:53;;;;;;;1999.90;999.90;;;7.70;99.90;;;;;;5051059;28;20169;-69
2022/12/19 07:40:18;;;;;;;1999.90;999.90;;;7.70;99.90;;;;;;5051590;28;20172;-69
2022/12/19 07:42:44;;;;;;;1999.90;999.90;;;7.90;99.90;;;;;;5054740;28;20192;-68
2022/12/19 07:45:11;;;;;;;1999.90;999.90;;;7.70;99.90;;;;;;5058496;28;20176;-68
2022/12/19 07:47:36;;;;;;;1999.90;999.90;;;7.80;99.90;;;;;;5059546;28;20406;-68
2022/12/19 07:50:02;;;;;;;1999.90;999.90;;;7.80;99.90;;;;;;5060128;28;20464;-68
2022/12/19 07:52:28;;;;;;;1999.90;999.90;;;7.90;99.90;;;;;;5059350;28;20694;-68
2022/12/19 07:54:53;;;;;;;1999.90;999.90;;;8.00;99.90;;;;;;5059492;28;20492;-68
2022/12/19 07:57:19;;;;;;;1999.90;999.90;;;;;;;;;;5058947;28;20170;-69
2022/12/19 07:59:45;;;;;;;1999.90;999.90;;;8.10;99.90;;;;;;5058380;28;20172;-68
2022/12/19 08:02:11;;;;;;;1999.90;999.90;;;8.00;99.90;;;;;;5057856;28;20433;-68
2022/12/19 08:04:37;;;;;;;1999.90;999.90;;;8.00;99.90;;;;;;5057892;28;20201;-68
2022/12/19 08:07:03;;;;;;;1999.90;999.90;;;8.20;99.90;;;;;;5057448;28;20416;-69
2022/12/19 08:09:29;;;;;;;1999.90;999.90;;;8.20;99.90;;;;;;5057997;28;20165;-69
2022/12/19 08:11:54;;;;;;;1999.90;999.90;;;8.00;99.90;;;;;;5058113;28;20488;-69
2022/12/19 08:14:20;;;;;;;1999.90;999.90;;;8.10;99.90;;;;;;5058685;28;20399;-68
2022/12/19 08:16:46;;;;;;;1999.90;999.90;;;;;;;;;;5055031;28;20172;-68
2022/12/19 08:19:12;;;;;;;1999.90;999.90;;;;;;;;;;5054578;28;20171;-68
2022/12/19 08:21:38;;;;;;;1999.90;999.90;;;;;;;;;;5054469;28;20427;-68
2022/12/19 08:24:04;;;;;;;1999.90;999.90;;;;;;;;;;5054659;28;20411;-68
2022/12/19 08:26:30;;;;;;;1999.90;999.90;;;8.50;99.90;;;;;;5054508;28;20410;-68
2022/12/19 08:28:57;;;;;;;1999.90;999.90;;;8.40;99.90;;;;;;5054313;28;20414;-68
2022/12/19 08:31:24;;;;;;;1999.90;999.90;;;8.50;99.90;;;;;;5054065;28;20230;-68
2022/12/19 08:33:51;;;;;;;1999.90;999.90;;;8.50;99.90;;;;;;5054420;28;20427;-68
2022/12/19 08:36:18;;;;;;;1999.90;999.90;;;8.90;99.90;;;;;;5054171;28;20411;-68
2022/12/19 08:38:44;;;;;;;1999.90;999.90;;;8.60;99.90;;;;;;5054174;28;20496;-68
2022/12/19 08:41:10;;;;;;;1999.90;999.90;;;8.40;99.90;;;;;;5058218;28;20471;-68
2022/12/19 08:43:37;;;;;;;1999.90;999.90;;;8.90;99.90;;;;;;5059017;28;20423;-68
2022/12/19 08:46:03;;;;;;;1999.90;999.90;;;8.50;99.90;;;;;;5057875;28;20447;-68
2022/12/19 08:48:30;;;;;;;1999.90;999.90;;;8.50;99.90;;;;;;5057942;28;20783;-68
2022/12/19 08:50:58;;;;;;;1999.90;999.90;;;8.60;99.90;;;;;;5058120;28;20888;-69
2022/12/19 08:53:26;;;;;;;1999.90;999.90;;;8.50;99.90;;;;;;5058458;28;20435;-69
2022/12/19 08:55:56;;;;;;;1999.90;999.90;;;8.80;99.90;;;;;;5057812;28;20492;-68
2022/12/19 08:58:22;;;;;;;1999.90;999.90;;;8.70;99.90;;;;;;5058550;28;20417;-68
2022/12/19 09:00:48;;;;;;;1999.90;999.90;;;8.60;99.90;;;;;;5058530;28;20459;-68
2022/12/19 09:03:13;;;;;;;1999.90;999.90;;;8.70;99.90;;;;;;5058254;28;20419;-68
2022/12/19 09:05:39;;;;;;;1999.90;999.90;;;8.80;99.90;;;;;;5058427;28;20178;-68
2022/12/19 09:08:05;;;;;;;1999.90;999.90;;;8.90;99.90;;;;;;5057380;28;20164;-68
2022/12/19 09:10:31;;;;;;;1999.90;999.90;;;8.70;99.90;;;;;;5058143;28;20226;-68
2022/12/19 09:12:57;;;;;;;1999.90;999.90;;;8.90;99.90;;;;;;5057757;28;20236;-68
2022/12/19 09:15:23;;;;;;;1999.90;999.90;;;8.60;99.90;;;;;;5057506;28;20175;-69
2022/12/19 09:17:48;;;;;;;1999.90;999.90;;;8.70;99.90;;;;;;5057293;28;20393;-68
2022/12/19 09:20:14;;;;;;;1999.90;999.90;;;8.90;99.90;;;;;;5057449;28;20439;-68
2022/12/19 09:22:39;;;;;;;1999.90;999.90;;;8.70;99.90;;;;;;5056112;28;20196;-67
2022/12/19 09:25:06;;;;;;;1999.90;999.90;;;;;;;;;;5055186;28;20200;-67
2022/12/19 09:27:32;;;;;;;1999.90;999.90;;;;;;;;;;5054865;28;20170;-68
2022/12/19 09:29:57;;;;;;;1999.90;999.90;;;8.90;99.90;;;;;;5054562;28;20399;-67
2022/12/19 09:32:23;;;;;;;1999.90;999.90;;;8.80;99.90;;;;;;5054281;28;20522;-67
2022/12/19 09:34:48;;;;;;;1999.90;999.90;;;9.10;99.90;;;;;;5054745;28;20171;-67
2022/12/19 09:37:14;;;;;;;1999.90;999.90;;;9.20;99.90;;;;;;5054310;28;20574;-67
2022/12/19 09:39:40;;;;;;;1999.90;999.90;;;9.30;99.90;;;;;;5054674;28;20169;-67
2022/12/19 09:42:09;;;;;;;1999.90;999.90;;;9.10;99.90;;;;;;5054625;28;20427;-67
2022/12/19 09:44:37;;;;;;;1999.90;999.90;;;8.60;99.90;;;;;;5055010;28;20404;-68
2022/12/19 09:47:12;;;;;;;1999.90;999.90;;;8.60;99.90;;;;;;5054768;28;20403;-68
2022/12/19 09:49:43;;;;;;;1999.90;999.90;;;8.90;99.90;;;;;;5054666;28;20425;-67
2022/12/19 09:52:40;;;;;;;1999.90;999.90;;;8.70;99.90;;;;;;5054492;28;20919;-67
2022/12/19 09:55:21;;;;;;;1999.90;999.90;;;8.90;99.90;;;;;;5054547;28;20779;-67
2022/12/19 09:57:46;;;;;;;1999.90;999.90;;;9.00;99.90;;;;;;5054180;28;20493;-67
2022/12/19 10:00:16;;;;;;;1999.90;999.90;;;9.30;99.90;;;;;;5053921;28;20492;-67
2022/12/19 10:02:54;;;;;;;1999.90;999.90;;;9.40;99.90;;;;;;5054143;28;20183;-67
2022/12/19 10:05:44;;;;;;;1999.90;999.90;;;9.90;99.90;;;;;;5053725;28;20903;-68
2022/12/19 10:08:26;;;;;;;1999.90;999.90;;;9.20;99.90;;;;;;5053281;28;20436;-68
2022/12/19 10:11:01;;;;;;;1999.90;999.90;;;9.30;99.90;;;;;;5042096;28;20411;-69
2022/12/19 10:13:41;;;;;;;1999.90;999.90;;;9.50;54.60;;;;;;5031317;28;20420;-70
2022/12/19 10:16:35;;;;;;;1999.90;999.90;;;9.30;9.20;;;;;;5031336;28;20406;-68
2022/12/19 10:19:04;;;;;;;1999.90;999.90;;;9.30;9.10;;;;;;5031610;28;20483;-70
2022/12/19 10:21:43;;;;;;;1999.90;999.90;;;9.20;8.30;;;;;;5031945;28;20880;-69
2022/12/19 10:24:35;;;;;;;1999.90;999.90;;;9.40;11.80;;;;;;5031820;28;20493;-70
2022/12/19 10:27:14;;;;;;;1999.90;999.90;;;9.30;14.90;;;;;;5032815;28;20403;-68
2022/12/19 10:30:00;;;;;;;1999.90;999.90;;;9.30;15.70;;;;;;5032133;28;20404;-68
2022/12/19 10:32:46;;;;;;;1999.90;999.90;;;9.20;1.00;;;;;;5032054;28;20467;-70
2022/12/19 10:35:15;;;;;;;1999.90;999.90;;;9.30;1.00;;;;;;5032620;28;20834;-69
2022/12/19 10:37:52;;;;;;;1999.90;999.90;;;9.30;18.60;;;;;;5029051;28;20468;-68
2022/12/19 10:40:30;;;;;;;1999.90;999.90;;;9.30;1.00;;;;;;5031755;28;20421;-70
2022/12/19 10:43:04;;;;;;;1999.90;999.90;;;10.40;1.00;;;;;;5032224;28;20428;-68
2022/12/19 10:45:36;;;;;;;1999.90;999.90;;;9.30;1.00;;;;;;5032304;28;20782;-68
2022/12/19 10:48:03;;;;;;;1999.90;999.90;;;9.20;1.00;;;;;;5032282;28;20411;-67
2022/12/19 10:50:29;;;;;;;1999.90;999.90;;;9.10;1.00;;;;;;5032838;28;20410;-67
2022/12/19 10:53:06;;;;;;;1999.90;999.90;;;8.90;11.00;;;;;;5031695;28;21032;-68
2022/12/19 10:55:43;;;;;;;1999.90;999.90;;;9.10;1.00;;;;;;5032627;28;20408;-67
2022/12/19 10:58:27;;;;;;;1999.90;999.90;;;9.00;19.20;;;;;;5032760;28;20494;-68
2022/12/19 11:01:14;;;;;;;1999.90;999.90;;;9.40;1.00;;;;;;5032968;28;20405;-67
2022/12/19 11:03:43;;;;;;;1999.90;999.90;;;9.20;1.00;;;;;;5033032;28;20405;-67
2022/12/19 11:06:32;;;;;;;1999.90;999.90;;;9.40;1.00;;;;;;5032828;28;20925;-68
2022/12/19 11:09:15;;;;;;;1999.90;999.90;;;9.50;1.00;;;;;;5021543;28;20416;-68
2022/12/19 11:11:41;;;;;;;1999.90;999.90;;;9.70;1.00;;;;;;5031609;28;20462;-68
2022/12/19 11:14:25;;;;;;;1999.90;999.90;;;10.00;1.00;;;;;;5031354;28;20761;-68
2022/12/19 11:16:50;;;;;;;1999.90;999.90;;;9.80;1.00;;;;;;5031251;28;20199;-68
2022/12/19 11:19:28;;;;;;;1999.90;999.90;;;10.10;1.00;;;;;;5032435;28;20769;-68
2022/12/19 11:21:58;;;;;;;1999.90;999.90;;;10.30;1.00;;;;;;5034821;28;20233;-68
2022/12/19 11:24:36;;;;;;;1999.90;999.90;;;9.40;1.00;;;;;;5035419;28;20445;-68
2022/12/19 11:27:02;;;;;;;1999.90;999.90;;;10.30;1.00;;;;;;5034983;28;20411;-68
2022/12/19 11:29:48;;;;;;;1999.90;999.90;;;10.30;1.00;;;;;;5035096;28;20416;-68
2022/12/19 11:32:34;;;;;;;1999.90;999.90;;;10.50;1.00;;;;;;5036111;28;20472;-67
2022/12/19 11:35:01;;;;;;;1999.90;999.90;;;10.40;99.90;;;;;;5036147;28;20399;-68
2022/12/19 11:37:43;;;;;;;1999.90;999.90;;;10.70;99.90;;;;;;5035514;28;20818;-67
2022/12/19 11:40:20;;;;;;;1999.90;999.90;;;10.50;99.90;;;;;;5035802;28;20444;-68
2022/12/19 11:43:01;;;;;;;1999.90;999.90;;;10.70;99.90;;;;;;5035668;28;20428;-68
2022/12/19 11:45:33;;;;;;;1999.90;999.90;;;10.70;99.90;;;;;;5035532;28;20413;-67
2022/12/19 11:48:08;;;;;;;1999.90;999.90;;;10.60;99.90;;;;;;5035586;28;20402;-68
2022/12/19 11:51:18;;;;;;;1999.90;999.90;;;10.70;99.90;;;;;;5035572;28;20458;-67
2022/12/19 11:54:01;;;;;;;1999.90;999.90;;;10.90;22.90;;;;;;5034731;28;20410;-69
2022/12/19 11:56:28;;;;;;;1999.90;999.90;;;10.90;1.00;;;;;;5034596;28;20757;-69
2022/12/19 11:59:25;;;;;;;1999.90;999.90;;;10.80;23.90;;;;;;5033921;28;20407;-69
2022/12/19 12:02:08;;;;;;;1999.90;999.90;;;10.90;1.00;;;;;;5034417;28;20447;-69
2022/12/19 12:04:43;;;;;;;1999.90;999.90;;;10.80;1.00;;;;;;5034353;28;20461;-69
2022/12/19 12:07:08;;;;;;;1999.90;999.90;;;10.90;1.00;;;;;;5033949;28;20441;-69
2022/12/19 12:09:40;;;;;;;1999.90;999.90;;;10.80;99.90;;;;;;5034322;28;20407;-69
2022/12/19 12:12:46;;;;;;;1999.90;999.90;;;10.90;1.00;;;;;;5034342;28;20912;-69
2022/12/19 12:15:27;;;;;;;1999.90;999.90;;;10.30;99.90;;;;;;5029901;28;20453;-69
2022/12/19 12:18:36;;;;;;;1999.90;999.90;;;10.40;99.90;;;;;;5034587;28;20414;-68
2022/12/19 12:21:21;;;;;;;1999.90;999.90;;;10.20;1.00;;;;;;5034905;28;20406;-67
2022/12/19 12:24:22;;;;;;;1999.90;999.90;;;10.20;1.00;;;;;;5035000;28;20489;-67
2022/12/19 12:27:16;;;;;;;1999.90;999.90;;;10.10;99.90;;;;;;5035067;28;20406;-67
2022/12/19 12:30:04;;;;;;;1999.90;999.90;;;10.00;1.00;;;;;;5033957;28;20493;-67
2022/12/19 12:33:07;;;;;;;1999.90;999.90;;;10.10;1.00;;;;;;5034425;28;20851;-67
2022/12/19 12:35:40;;;;;;;1999.90;999.90;;;10.00;99.90;;;;;;5035429;28;20443;-68
2022/12/19 12:38:31;;;;;;;1999.90;999.90;;;10.30;99.90;;;;;;5034174;28;20497;-67
2022/12/19 12:41:08;;;;;;;1999.90;999.90;;;12.50;99.90;;;;;;5035079;28;20403;-67